sensor_id;sensor_type;location;lat;lon;timestamp;P1;durP1;ratioP1;P2;durP2;ratioP2
3865;SDS011;1948;53.250;10.412;2024-03-17T00:00:46;26.77;;;4.43;;
3865;SDS011;1948;53.250;10.412;2024-03-17T00:03:12;37.17;;;4.87;;
3865;SDS011;1948;53.250;10.412;2024-03-17T00:05:43;38.40;;;4.40;;
3865;SDS011;1948;53.250;10.412;2024-03-17T00:08:09;22.03;;;3.13;;
3865;SDS011;1948;53.250;10.412;2024-03-17T00:10:35;32.87;;;4.60;;
3865;SDS011;1948;53.250;10.412;2024-03-17T00:13:01;20.33;;;3.20;;
3865;SDS011;1948;53.250;10.412;2024-03-17T00:15:27;36.40;;;4.27;;
3865;SDS011;1948;53.250;10.412;2024-03-17T00:17:53;33.23;;;3.63;;
3865;SDS011;1948;53.250;10.412;2024-03-17T00:20:19;21.57;;;3.20;;
3865;SDS011;1948;53.250;10.412;2024-03-17T00:22:49;34.33;;;4.17;;
3865;SDS011;1948;53.250;10.412;2024-03-17T00:25:18;19.23;;;4.03;;
3865;SDS011;1948;53.250;10.412;2024-03-17T00:27:45;37.93;;;5.60;;
3865;SDS011;1948;53.250;10.412;2024-03-17T00:30:13;31.33;;;4.20;;
3865;SDS011;1948;53.250;10.412;2024-03-17T00:32:39;26.50;;;5.00;;
3865;SDS011;1948;53.250;10.412;2024-03-17T00:35:06;19.90;;;4.07;;
3865;SDS011;1948;53.250;10.412;2024-03-17T00:37:34;27.97;;;4.30;;
3865;SDS011;1948;53.250;10.412;2024-03-17T00:40:00;37.60;;;5.30;;
3865;SDS011;1948;53.250;10.412;2024-03-17T00:42:28;26.27;;;3.40;;
3865;SDS011;1948;53.250;10.412;2024-03-17T00:44:55;24.70;;;4.73;;
3865;SDS011;1948;53.250;10.412;2024-03-17T00:47:21;25.30;;;4.07;;
3865;SDS011;1948;53.250;10.412;2024-03-17T00:49:47;28.33;;;4.70;;
3865;SDS011;1948;53.250;10.412;2024-03-17T00:52:16;31.20;;;4.00;;
3865;SDS011;1948;53.250;10.412;2024-03-17T00:54:42;40.17;;;4.90;;
3865;SDS011;1948;53.250;10.412;2024-03-17T00:57:12;25.43;;;3.97;;
3865;SDS011;1948;53.250;10.412;2024-03-17T00:59:43;33.17;;;5.40;;
3865;SDS011;1948;53.250;10.412;2024-03-17T01:02:12;27.07;;;4.53;;
3865;SDS011;1948;53.250;10.412;2024-03-17T01:04:45;19.60;;;4.07;;
3865;SDS011;1948;53.250;10.412;2024-03-17T01:07:13;15.87;;;3.87;;
3865;SDS011;1948;53.250;10.412;2024-03-17T01:09:39;42.83;;;3.43;;
3865;SDS011;1948;53.250;10.412;2024-03-17T01:12:05;23.37;;;4.50;;
3865;SDS011;1948;53.250;10.412;2024-03-17T01:14:32;36.10;;;4.30;;
3865;SDS011;1948;53.250;10.412;2024-03-17T01:17:00;29.83;;;4.00;;
3865;SDS011;1948;53.250;10.412;2024-03-17T01:19:30;32.90;;;4.70;;
3865;SDS011;1948;53.250;10.412;2024-03-17T01:21:57;29.23;;;3.90;;
3865;SDS011;1948;53.250;10.412;2024-03-17T01:24:26;23.30;;;4.43;;
3865;SDS011;1948;53.250;10.412;2024-03-17T01:26:59;23.53;;;5.07;;
3865;SDS011;1948;53.250;10.412;2024-03-17T01:29:26;25.30;;;4.53;;
3865;SDS011;1948;53.250;10.412;2024-03-17T01:31:53;33.60;;;3.60;;
3865;SDS011;1948;53.250;10.412;2024-03-17T01:34:19;21.33;;;4.27;;
3865;SDS011;1948;53.250;10.412;2024-03-17T01:36:47;44.77;;;5.17;;
3865;SDS011;1948;53.250;10.412;2024-03-17T01:39:16;34.37;;;5.13;;
3865;SDS011;1948;53.250;10.412;2024-03-17T01:41:43;22.93;;;3.00;;
3865;SDS011;1948;53.250;10.412;2024-03-17T01:44:21;18.50;;;3.83;;
3865;SDS011;1948;53.250;10.412;2024-03-17T01:46:49;25.77;;;4.10;;
3865;SDS011;1948;53.250;10.412;2024-03-17T01:49:18;24.23;;;4.30;;
3865;SDS011;1948;53.250;10.412;2024-03-17T01:51:50;31.00;;;3.73;;
3865;SDS011;1948;53.250;10.412;2024-03-17T01:54:19;22.60;;;3.90;;
3865;SDS011;1948;53.250;10.412;2024-03-17T01:56:53;36.00;;;2.93;;
3865;SDS011;1948;53.250;10.412;2024-03-17T01:59:26;34.13;;;4.10;;
3865;SDS011;1948;53.250;10.412;2024-03-17T02:01:52;30.43;;;4.00;;
3865;SDS011;1948;53.250;10.412;2024-03-17T02:04:20;19.40;;;3.50;;
3865;SDS011;1948;53.250;10.412;2024-03-17T02:06:47;34.53;;;3.43;;
3865;SDS011;1948;53.250;10.412;2024-03-17T02:09:13;38.33;;;4.80;;
3865;SDS011;1948;53.250;10.412;2024-03-17T02:11:39;30.33;;;4.40;;
3865;SDS011;1948;53.250;10.412;2024-03-17T02:14:05;30.93;;;4.00;;
3865;SDS011;1948;53.250;10.412;2024-03-17T02:16:32;19.50;;;3.77;;
3865;SDS011;1948;53.250;10.412;2024-03-17T02:18:59;21.47;;;4.00;;
3865;SDS011;1948;53.250;10.412;2024-03-17T02:21:25;32.33;;;5.10;;
3865;SDS011;1948;53.250;10.412;2024-03-17T02:23:53;21.30;;;3.80;;
3865;SDS011;1948;53.250;10.412;2024-03-17T02:26:19;50.50;;;4.07;;
3865;SDS011;1948;53.250;10.412;2024-03-17T02:28:51;31.53;;;4.30;;
3865;SDS011;1948;53.250;10.412;2024-03-17T02:31:20;39.87;;;4.93;;
3865;SDS011;1948;53.250;10.412;2024-03-17T02:33:47;41.93;;;5.73;;
3865;SDS011;1948;53.250;10.412;2024-03-17T02:36:16;23.23;;;3.50;;
3865;SDS011;1948;53.250;10.412;2024-03-17T02:38:44;26.03;;;3.70;;
3865;SDS011;1948;53.250;10.412;2024-03-17T02:41:31;15.50;;;3.40;;
3865;SDS011;1948;53.250;10.412;2024-03-17T02:43:57;22.20;;;4.13;;
3865;SDS011;1948;53.250;10.412;2024-03-17T02:46:23;22.53;;;3.30;;
3865;SDS011;1948;53.250;10.412;2024-03-17T02:48:54;23.60;;;2.80;;
3865;SDS011;1948;53.250;10.412;2024-03-17T02:51:20;24.47;;;3.27;;
3865;SDS011;1948;53.250;10.412;2024-03-17T02:53:49;24.80;;;3.10;;
3865;SDS011;1948;53.250;10.412;2024-03-17T02:56:16;22.77;;;4.17;;
3865;SDS011;1948;53.250;10.412;2024-03-17T02:58:44;23.47;;;3.60;;
3865;SDS011;1948;53.250;10.412;2024-03-17T03:01:11;24.00;;;2.93;;
3865;SDS011;1948;53.250;10.412;2024-03-17T03:03:38;41.33;;;4.10;;
3865;SDS011;1948;53.250;10.412;2024-03-17T03:06:04;14.70;;;3.17;;
3865;SDS011;1948;53.250;10.412;2024-03-17T03:08:37;31.13;;;4.57;;
3865;SDS011;1948;53.250;10.412;2024-03-17T03:11:09;20.97;;;3.80;;
3865;SDS011;1948;53.250;10.412;2024-03-17T03:13:43;13.27;;;4.00;;
3865;SDS011;1948;53.250;10.412;2024-03-17T03:16:10;29.10;;;4.10;;
3865;SDS011;1948;53.250;10.412;2024-03-17T03:18:38;17.40;;;4.60;;
3865;SDS011;1948;53.250;10.412;2024-03-17T03:21:04;22.60;;;4.83;;
3865;SDS011;1948;53.250;10.412;2024-03-17T03:23:31;26.57;;;4.63;;
3865;SDS011;1948;53.250;10.412;2024-03-17T03:26:00;26.20;;;4.73;;
3865;SDS011;1948;53.250;10.412;2024-03-17T03:28:33;20.03;;;2.60;;
3865;SDS011;1948;53.250;10.412;2024-03-17T03:30:59;23.90;;;2.97;;
3865;SDS011;1948;53.250;10.412;2024-03-17T03:33:25;25.57;;;3.70;;
3865;SDS011;1948;53.250;10.412;2024-03-17T03:35:52;13.67;;;3.93;;
3865;SDS011;1948;53.250;10.412;2024-03-17T03:38:19;23.67;;;3.30;;
3865;SDS011;1948;53.250;10.412;2024-03-17T03:40:45;21.13;;;3.60;;
3865;SDS011;1948;53.250;10.412;2024-03-17T03:43:14;18.73;;;3.00;;
3865;SDS011;1948;53.250;10.412;2024-03-17T03:45:40;12.60;;;3.70;;
3865;SDS011;1948;53.250;10.412;2024-03-17T03:48:07;21.27;;;3.23;;
3865;SDS011;1948;53.250;10.412;2024-03-17T03:50:34;24.00;;;3.50;;
3865;SDS011;1948;53.250;10.412;2024-03-17T03:53:03;25.77;;;4.30;;
3865;SDS011;1948;53.250;10.412;2024-03-17T03:55:33;12.63;;;3.50;;
3865;SDS011;1948;53.250;10.412;2024-03-17T03:57:58;21.87;;;3.60;;
3865;SDS011;1948;53.250;10.412;2024-03-17T04:00:24;23.50;;;4.60;;
3865;SDS011;1948;53.250;10.412;2024-03-17T04:02:56;28.43;;;5.37;;
3865;SDS011;1948;53.250;10.412;2024-03-17T04:05:29;23.27;;;4.43;;
3865;SDS011;1948;53.250;10.412;2024-03-17T04:07:59;17.43;;;3.77;;
3865;SDS011;1948;53.250;10.412;2024-03-17T04:10:26;13.17;;;3.30;;
3865;SDS011;1948;53.250;10.412;2024-03-17T04:12:52;14.77;;;2.83;;
3865;SDS011;1948;53.250;10.412;2024-03-17T04:15:20;16.93;;;3.53;;
3865;SDS011;1948;53.250;10.412;2024-03-17T04:17:49;14.43;;;3.00;;
3865;SDS011;1948;53.250;10.412;2024-03-17T04:20:17;11.83;;;3.03;;
3865;SDS011;1948;53.250;10.412;2024-03-17T04:22:43;13.97;;;3.30;;
3865;SDS011;1948;53.250;10.412;2024-03-17T04:25:10;9.87;;;3.17;;
3865;SDS011;1948;53.250;10.412;2024-03-17T04:27:43;20.90;;;3.47;;
3865;SDS011;1948;53.250;10.412;2024-03-17T04:30:09;20.37;;;4.20;;
3865;SDS011;1948;53.250;10.412;2024-03-17T04:32:39;29.47;;;3.97;;
3865;SDS011;1948;53.250;10.412;2024-03-17T04:35:08;12.37;;;2.80;;
3865;SDS011;1948;53.250;10.412;2024-03-17T04:37:34;13.97;;;2.50;;
3865;SDS011;1948;53.250;10.412;2024-03-17T04:40:04;15.83;;;2.60;;
3865;SDS011;1948;53.250;10.412;2024-03-17T04:42:37;23.63;;;3.73;;
3865;SDS011;1948;53.250;10.412;2024-03-17T04:45:06;29.33;;;3.80;;
3865;SDS011;1948;53.250;10.412;2024-03-17T04:47:37;11.83;;;2.70;;
3865;SDS011;1948;53.250;10.412;2024-03-17T04:50:03;16.60;;;3.33;;
3865;SDS011;1948;53.250;10.412;2024-03-17T04:52:29;20.13;;;3.47;;
3865;SDS011;1948;53.250;10.412;2024-03-17T04:54:58;25.33;;;4.07;;
3865;SDS011;1948;53.250;10.412;2024-03-17T04:57:26;21.50;;;3.97;;
3865;SDS011;1948;53.250;10.412;2024-03-17T04:59:55;18.27;;;4.00;;
3865;SDS011;1948;53.250;10.412;2024-03-17T05:02:21;13.47;;;3.60;;
3865;SDS011;1948;53.250;10.412;2024-03-17T05:04:48;18.10;;;5.00;;
3865;SDS011;1948;53.250;10.412;2024-03-17T05:07:18;23.17;;;3.50;;
3865;SDS011;1948;53.250;10.412;2024-03-17T05:09:46;10.70;;;3.53;;
3865;SDS011;1948;53.250;10.412;2024-03-17T05:12:15;14.27;;;3.33;;
3865;SDS011;1948;53.250;10.412;2024-03-17T05:14:44;32.53;;;3.23;;
3865;SDS011;1948;53.250;10.412;2024-03-17T05:17:10;16.37;;;4.60;;
3865;SDS011;1948;53.250;10.412;2024-03-17T05:19:39;29.53;;;3.13;;
3865;SDS011;1948;53.250;10.412;2024-03-17T05:22:04;17.80;;;2.63;;
3865;SDS011;1948;53.250;10.412;2024-03-17T05:24:31;16.57;;;2.70;;
3865;SDS011;1948;53.250;10.412;2024-03-17T05:26:59;10.37;;;3.00;;
3865;SDS011;1948;53.250;10.412;2024-03-17T05:29:25;16.37;;;2.33;;
3865;SDS011;1948;53.250;10.412;2024-03-17T05:31:51;22.93;;;3.13;;
3865;SDS011;1948;53.250;10.412;2024-03-17T05:34:17;14.37;;;2.80;;
3865;SDS011;1948;53.250;10.412;2024-03-17T05:36:45;13.57;;;2.90;;
3865;SDS011;1948;53.250;10.412;2024-03-17T05:39:12;8.40;;;2.73;;
3865;SDS011;1948;53.250;10.412;2024-03-17T05:41:39;21.13;;;2.87;;
3865;SDS011;1948;53.250;10.412;2024-03-17T05:44:06;12.70;;;3.37;;
3865;SDS011;1948;53.250;10.412;2024-03-17T05:46:32;17.50;;;2.77;;
3865;SDS011;1948;53.250;10.412;2024-03-17T05:49:00;8.83;;;2.70;;
3865;SDS011;1948;53.250;10.412;2024-03-17T05:51:26;9.80;;;3.87;;
3865;SDS011;1948;53.250;10.412;2024-03-17T05:53:53;13.63;;;2.93;;
3865;SDS011;1948;53.250;10.412;2024-03-17T05:56:21;9.07;;;3.10;;
3865;SDS011;1948;53.250;10.412;2024-03-17T05:58:48;10.10;;;3.20;;
3865;SDS011;1948;53.250;10.412;2024-03-17T06:01:14;22.60;;;4.43;;
3865;SDS011;1948;53.250;10.412;2024-03-17T06:03:42;27.57;;;3.30;;
3865;SDS011;1948;53.250;10.412;2024-03-17T06:06:08;11.07;;;2.70;;
3865;SDS011;1948;53.250;10.412;2024-03-17T06:08:38;20.83;;;3.57;;
3865;SDS011;1948;53.250;10.412;2024-03-17T06:11:04;13.30;;;3.27;;
3865;SDS011;1948;53.250;10.412;2024-03-17T06:13:30;18.07;;;3.07;;
3865;SDS011;1948;53.250;10.412;2024-03-17T06:15:56;15.30;;;3.40;;
3865;SDS011;1948;53.250;10.412;2024-03-17T06:18:28;23.53;;;3.57;;
3865;SDS011;1948;53.250;10.412;2024-03-17T06:20:54;16.20;;;3.80;;
3865;SDS011;1948;53.250;10.412;2024-03-17T06:23:29;16.60;;;4.50;;
3865;SDS011;1948;53.250;10.412;2024-03-17T06:25:55;18.67;;;4.17;;
3865;SDS011;1948;53.250;10.412;2024-03-17T06:28:21;19.67;;;5.23;;
3865;SDS011;1948;53.250;10.412;2024-03-17T06:30:55;15.07;;;3.03;;
3865;SDS011;1948;53.250;10.412;2024-03-17T06:33:32;23.07;;;3.50;;
3865;SDS011;1948;53.250;10.412;2024-03-17T06:36:03;9.90;;;2.73;;
3865;SDS011;1948;53.250;10.412;2024-03-17T06:38:30;16.23;;;4.23;;
3865;SDS011;1948;53.250;10.412;2024-03-17T06:41:03;17.53;;;4.10;;
3865;SDS011;1948;53.250;10.412;2024-03-17T06:43:29;16.63;;;4.07;;
3865;SDS011;1948;53.250;10.412;2024-03-17T06:45:56;16.07;;;3.60;;
3865;SDS011;1948;53.250;10.412;2024-03-17T06:48:26;8.70;;;3.33;;
3865;SDS011;1948;53.250;10.412;2024-03-17T06:50:55;19.57;;;4.37;;
3865;SDS011;1948;53.250;10.412;2024-03-17T06:53:27;18.63;;;3.30;;
3865;SDS011;1948;53.250;10.412;2024-03-17T06:55:57;8.10;;;2.93;;
3865;SDS011;1948;53.250;10.412;2024-03-17T06:58:28;18.10;;;3.53;;
3865;SDS011;1948;53.250;10.412;2024-03-17T07:00:58;29.93;;;4.00;;
3865;SDS011;1948;53.250;10.412;2024-03-17T07:03:29;13.70;;;3.63;;
3865;SDS011;1948;53.250;10.412;2024-03-17T07:05:57;12.07;;;3.50;;
3865;SDS011;1948;53.250;10.412;2024-03-17T07:08:27;16.33;;;3.87;;
3865;SDS011;1948;53.250;10.412;2024-03-17T07:13:30;10.50;;;3.57;;
3865;SDS011;1948;53.250;10.412;2024-03-17T07:16:08;16.47;;;3.80;;
3865;SDS011;1948;53.250;10.412;2024-03-17T07:18:35;20.20;;;4.20;;
3865;SDS011;1948;53.250;10.412;2024-03-17T07:21:02;4.93;;;3.67;;
3865;SDS011;1948;53.250;10.412;2024-03-17T07:23:31;7.13;;;3.70;;
3865;SDS011;1948;53.250;10.412;2024-03-17T07:26:00;19.77;;;4.20;;
3865;SDS011;1948;53.250;10.412;2024-03-17T07:28:31;12.23;;;4.00;;
3865;SDS011;1948;53.250;10.412;2024-03-17T07:30:59;10.30;;;4.00;;
3865;SDS011;1948;53.250;10.412;2024-03-17T07:33:28;8.63;;;3.50;;
3865;SDS011;1948;53.250;10.412;2024-03-17T07:35:57;13.33;;;3.60;;
3865;SDS011;1948;53.250;10.412;2024-03-17T07:38:25;9.10;;;3.77;;
3865;SDS011;1948;53.250;10.412;2024-03-17T07:40:57;11.23;;;3.83;;
3865;SDS011;1948;53.250;10.412;2024-03-17T07:43:25;11.80;;;3.10;;
3865;SDS011;1948;53.250;10.412;2024-03-17T07:46:02;13.00;;;3.80;;
3865;SDS011;1948;53.250;10.412;2024-03-17T07:48:35;11.20;;;4.27;;
3865;SDS011;1948;53.250;10.412;2024-03-17T07:51:03;13.60;;;4.07;;
3865;SDS011;1948;53.250;10.412;2024-03-17T07:53:37;11.43;;;3.30;;
3865;SDS011;1948;53.250;10.412;2024-03-17T07:58:36;10.53;;;3.97;;
3865;SDS011;1948;53.250;10.412;2024-03-17T08:01:08;10.60;;;3.67;;
3865;SDS011;1948;53.250;10.412;2024-03-17T08:03:37;8.70;;;3.90;;
3865;SDS011;1948;53.250;10.412;2024-03-17T08:06:06;13.10;;;3.70;;
3865;SDS011;1948;53.250;10.412;2024-03-17T08:08:36;15.50;;;3.97;;
3865;SDS011;1948;53.250;10.412;2024-03-17T08:11:04;9.93;;;3.80;;
3865;SDS011;1948;53.250;10.412;2024-03-17T08:13:33;10.40;;;3.40;;
3865;SDS011;1948;53.250;10.412;2024-03-17T08:16:03;14.70;;;3.77;;
3865;SDS011;1948;53.250;10.412;2024-03-17T08:18:36;12.57;;;3.83;;
3865;SDS011;1948;53.250;10.412;2024-03-17T08:21:06;11.30;;;4.23;;
3865;SDS011;1948;53.250;10.412;2024-03-17T08:23:39;16.60;;;4.00;;
3865;SDS011;1948;53.250;10.412;2024-03-17T08:26:07;14.97;;;3.80;;
3865;SDS011;1948;53.250;10.412;2024-03-17T08:28:34;13.00;;;3.60;;
3865;SDS011;1948;53.250;10.412;2024-03-17T08:31:01;11.50;;;3.50;;
3865;SDS011;1948;53.250;10.412;2024-03-17T08:33:29;18.97;;;3.30;;
3865;SDS011;1948;53.250;10.412;2024-03-17T08:35:57;11.27;;;3.00;;
3865;SDS011;1948;53.250;10.412;2024-03-17T08:38:23;16.60;;;4.50;;
3865;SDS011;1948;53.250;10.412;2024-03-17T08:40:50;24.27;;;4.40;;
3865;SDS011;1948;53.250;10.412;2024-03-17T08:43:21;19.43;;;3.60;;
3865;SDS011;1948;53.250;10.412;2024-03-17T08:46:03;12.63;;;2.80;;
3865;SDS011;1948;53.250;10.412;2024-03-17T08:48:32;9.50;;;3.13;;
3865;SDS011;1948;53.250;10.412;2024-03-17T08:51:01;12.07;;;3.70;;
3865;SDS011;1948;53.250;10.412;2024-03-17T08:53:33;9.07;;;3.00;;
3865;SDS011;1948;53.250;10.412;2024-03-17T08:56:00;10.60;;;3.00;;
3865;SDS011;1948;53.250;10.412;2024-03-17T08:58:28;5.37;;;2.73;;
3865;SDS011;1948;53.250;10.412;2024-03-17T09:00:54;23.07;;;3.03;;
3865;SDS011;1948;53.250;10.412;2024-03-17T09:03:21;17.93;;;2.93;;
3865;SDS011;1948;53.250;10.412;2024-03-17T09:05:47;23.33;;;3.90;;
3865;SDS011;1948;53.250;10.412;2024-03-17T09:10:48;7.57;;;2.60;;
3865;SDS011;1948;53.250;10.412;2024-03-17T09:15:53;24.37;;;4.20;;
3865;SDS011;1948;53.250;10.412;2024-03-17T09:18:27;8.70;;;2.37;;
3865;SDS011;1948;53.250;10.412;2024-03-17T09:23:29;7.73;;;2.30;;
3865;SDS011;1948;53.250;10.412;2024-03-17T09:25:57;16.67;;;2.50;;
3865;SDS011;1948;53.250;10.412;2024-03-17T09:28:27;14.60;;;3.00;;
3865;SDS011;1948;53.250;10.412;2024-03-17T09:30:55;9.53;;;2.73;;
3865;SDS011;1948;53.250;10.412;2024-03-17T09:33:22;7.20;;;2.27;;
3865;SDS011;1948;53.250;10.412;2024-03-17T09:35:57;14.80;;;2.80;;
3865;SDS011;1948;53.250;10.412;2024-03-17T09:38:33;7.20;;;2.43;;
3865;SDS011;1948;53.250;10.412;2024-03-17T09:41:00;10.87;;;2.37;;
3865;SDS011;1948;53.250;10.412;2024-03-17T09:43:28;7.00;;;2.60;;
3865;SDS011;1948;53.250;10.412;2024-03-17T09:45:57;5.97;;;2.80;;
3865;SDS011;1948;53.250;10.412;2024-03-17T09:48:30;10.10;;;2.43;;
3865;SDS011;1948;53.250;10.412;2024-03-17T09:51:01;8.53;;;2.93;;
3865;SDS011;1948;53.250;10.412;2024-03-17T09:53:29;8.87;;;2.57;;
3865;SDS011;1948;53.250;10.412;2024-03-17T09:56:06;11.67;;;2.70;;
3865;SDS011;1948;53.250;10.412;2024-03-17T09:58:44;6.17;;;1.93;;
3865;SDS011;1948;53.250;10.412;2024-03-17T10:01:17;8.57;;;2.43;;
3865;SDS011;1948;53.250;10.412;2024-03-17T10:03:50;10.60;;;2.00;;
3865;SDS011;1948;53.250;10.412;2024-03-17T10:06:20;5.97;;;2.10;;
3865;SDS011;1948;53.250;10.412;2024-03-17T10:08:53;7.63;;;2.10;;
3865;SDS011;1948;53.250;10.412;2024-03-17T10:11:22;8.10;;;2.60;;
3865;SDS011;1948;53.250;10.412;2024-03-17T10:14:00;7.53;;;2.40;;
3865;SDS011;1948;53.250;10.412;2024-03-17T10:16:27;8.30;;;2.50;;
3865;SDS011;1948;53.250;10.412;2024-03-17T10:21:46;10.03;;;2.00;;
3865;SDS011;1948;53.250;10.412;2024-03-17T10:24:14;4.60;;;2.17;;
3865;SDS011;1948;53.250;10.412;2024-03-17T10:26:48;18.27;;;2.53;;
3865;SDS011;1948;53.250;10.412;2024-03-17T10:31:59;8.53;;;2.47;;
3865;SDS011;1948;53.250;10.412;2024-03-17T10:34:31;7.83;;;2.43;;
3865;SDS011;1948;53.250;10.412;2024-03-17T10:37:19;8.47;;;1.97;;
3865;SDS011;1948;53.250;10.412;2024-03-17T10:39:50;5.57;;;2.17;;
3865;SDS011;1948;53.250;10.412;2024-03-17T10:42:24;8.70;;;2.53;;
3865;SDS011;1948;53.250;10.412;2024-03-17T10:44:56;10.90;;;1.93;;
3865;SDS011;1948;53.250;10.412;2024-03-17T10:47:27;11.50;;;2.40;;
3865;SDS011;1948;53.250;10.412;2024-03-17T10:49:55;4.87;;;1.70;;
3865;SDS011;1948;53.250;10.412;2024-03-17T10:52:22;8.00;;;1.60;;
3865;SDS011;1948;53.250;10.412;2024-03-17T10:54:54;6.63;;;2.13;;
3865;SDS011;1948;53.250;10.412;2024-03-17T11:00:14;9.83;;;2.40;;
3865;SDS011;1948;53.250;10.412;2024-03-17T11:02:43;13.00;;;2.30;;
3865;SDS011;1948;53.250;10.412;2024-03-17T11:05:22;6.43;;;1.60;;
3865;SDS011;1948;53.250;10.412;2024-03-17T11:07:55;6.23;;;2.13;;
3865;SDS011;1948;53.250;10.412;2024-03-17T11:10:29;2.50;;;1.30;;
3865;SDS011;1948;53.250;10.412;2024-03-17T11:13:01;3.00;;;1.40;;
3865;SDS011;1948;53.250;10.412;2024-03-17T11:17:56;3.27;;;1.80;;
3865;SDS011;1948;53.250;10.412;2024-03-17T11:23:40;2.77;;;1.50;;
3865;SDS011;1948;53.250;10.412;2024-03-17T11:26:10;5.27;;;2.00;;
3865;SDS011;1948;53.250;10.412;2024-03-17T11:34:04;2.50;;;1.50;;
3865;SDS011;1948;53.250;10.412;2024-03-17T11:41:41;3.60;;;1.40;;
3865;SDS011;1948;53.250;10.412;2024-03-17T11:47:07;6.27;;;1.60;;
3865;SDS011;1948;53.250;10.412;2024-03-17T11:52:10;4.77;;;1.63;;
3865;SDS011;1948;53.250;10.412;2024-03-17T11:54:39;4.23;;;1.67;;
3865;SDS011;1948;53.250;10.412;2024-03-17T11:57:08;2.50;;;1.80;;
3865;SDS011;1948;53.250;10.412;2024-03-17T11:59:39;2.43;;;1.27;;
3865;SDS011;1948;53.250;10.412;2024-03-17T12:02:09;8.07;;;1.60;;
3865;SDS011;1948;53.250;10.412;2024-03-17T12:04:47;7.27;;;1.93;;
3865;SDS011;1948;53.250;10.412;2024-03-17T12:07:15;4.10;;;1.50;;
3865;SDS011;1948;53.250;10.412;2024-03-17T12:09:47;7.50;;;1.87;;
3865;SDS011;1948;53.250;10.412;2024-03-17T12:12:20;2.33;;;1.50;;
3865;SDS011;1948;53.250;10.412;2024-03-17T12:14:48;7.00;;;2.53;;
3865;SDS011;1948;53.250;10.412;2024-03-17T12:17:22;7.10;;;1.73;;
3865;SDS011;1948;53.250;10.412;2024-03-17T12:19:50;8.30;;;2.07;;
3865;SDS011;1948;53.250;10.412;2024-03-17T12:22:19;4.27;;;2.20;;
3865;SDS011;1948;53.250;10.412;2024-03-17T12:24:48;6.13;;;1.93;;
3865;SDS011;1948;53.250;10.412;2024-03-17T12:27:23;4.60;;;2.30;;
3865;SDS011;1948;53.250;10.412;2024-03-17T12:29:53;5.77;;;2.43;;
3865;SDS011;1948;53.250;10.412;2024-03-17T12:32:21;3.40;;;3.10;;
3865;SDS011;1948;53.250;10.412;2024-03-17T12:34:50;6.53;;;2.40;;
3865;SDS011;1948;53.250;10.412;2024-03-17T12:37:23;7.77;;;2.00;;
3865;SDS011;1948;53.250;10.412;2024-03-17T12:40:02;4.77;;;2.00;;
3865;SDS011;1948;53.250;10.412;2024-03-17T12:42:32;7.83;;;1.67;;
3865;SDS011;1948;53.250;10.412;2024-03-17T12:44:58;4.63;;;1.90;;
3865;SDS011;1948;53.250;10.412;2024-03-17T12:47:32;4.50;;;1.60;;
3865;SDS011;1948;53.250;10.412;2024-03-17T12:50:00;3.33;;;2.03;;
3865;SDS011;1948;53.250;10.412;2024-03-17T12:52:31;11.03;;;1.50;;
3865;SDS011;1948;53.250;10.412;2024-03-17T12:57:51;6.10;;;1.90;;
3865;SDS011;1948;53.250;10.412;2024-03-17T13:00:45;2.30;;;1.67;;
3865;SDS011;1948;53.250;10.412;2024-03-17T13:03:20;6.83;;;1.80;;
3865;SDS011;1948;53.250;10.412;2024-03-17T13:05:51;8.50;;;1.77;;
3865;SDS011;1948;53.250;10.412;2024-03-17T13:08:17;4.40;;;1.50;;
3865;SDS011;1948;53.250;10.412;2024-03-17T13:10:43;4.73;;;1.77;;
3865;SDS011;1948;53.250;10.412;2024-03-17T13:13:10;5.13;;;2.17;;
3865;SDS011;1948;53.250;10.412;2024-03-17T13:15:41;4.30;;;1.70;;
3865;SDS011;1948;53.250;10.412;2024-03-17T13:18:09;6.33;;;1.57;;
3865;SDS011;1948;53.250;10.412;2024-03-17T13:20:44;4.90;;;2.10;;
3865;SDS011;1948;53.250;10.412;2024-03-17T13:23:13;6.87;;;2.10;;
3865;SDS011;1948;53.250;10.412;2024-03-17T13:25:39;4.93;;;1.83;;
3865;SDS011;1948;53.250;10.412;2024-03-17T13:28:08;7.70;;;2.17;;
3865;SDS011;1948;53.250;10.412;2024-03-17T13:30:35;6.23;;;2.07;;
3865;SDS011;1948;53.250;10.412;2024-03-17T13:33:02;5.07;;;1.90;;
3865;SDS011;1948;53.250;10.412;2024-03-17T13:35:36;4.87;;;2.57;;
3865;SDS011;1948;53.250;10.412;2024-03-17T13:38:06;8.03;;;2.53;;
3865;SDS011;1948;53.250;10.412;2024-03-17T13:40:35;8.33;;;2.37;;
3865;SDS011;1948;53.250;10.412;2024-03-17T13:43:07;10.53;;;2.50;;
3865;SDS011;1948;53.250;10.412;2024-03-17T13:45:37;2.97;;;1.63;;
3865;SDS011;1948;53.250;10.412;2024-03-17T13:48:11;7.23;;;2.33;;
3865;SDS011;1948;53.250;10.412;2024-03-17T13:50:38;2.73;;;1.87;;
3865;SDS011;1948;53.250;10.412;2024-03-17T13:53:06;5.33;;;2.63;;
3865;SDS011;1948;53.250;10.412;2024-03-17T13:55:33;6.07;;;2.50;;
3865;SDS011;1948;53.250;10.412;2024-03-17T13:57:59;8.07;;;2.77;;
3865;SDS011;1948;53.250;10.412;2024-03-17T14:00:25;17.70;;;2.50;;
3865;SDS011;1948;53.250;10.412;2024-03-17T14:02:54;7.63;;;2.17;;
3865;SDS011;1948;53.250;10.412;2024-03-17T14:05:24;12.37;;;2.67;;
3865;SDS011;1948;53.250;10.412;2024-03-17T14:07:52;6.47;;;2.43;;
3865;SDS011;1948;53.250;10.412;2024-03-17T14:10:19;10.30;;;2.70;;
3865;SDS011;1948;53.250;10.412;2024-03-17T14:12:49;9.60;;;2.50;;
3865;SDS011;1948;53.250;10.412;2024-03-17T14:15:16;6.80;;;1.90;;
3865;SDS011;1948;53.250;10.412;2024-03-17T14:17:43;4.70;;;2.43;;
3865;SDS011;1948;53.250;10.412;2024-03-17T14:20:14;4.77;;;2.20;;
3865;SDS011;1948;53.250;10.412;2024-03-17T14:22:43;7.53;;;2.40;;
3865;SDS011;1948;53.250;10.412;2024-03-17T14:25:17;7.80;;;2.60;;
3865;SDS011;1948;53.250;10.412;2024-03-17T14:27:47;8.67;;;2.70;;
3865;SDS011;1948;53.250;10.412;2024-03-17T14:30:16;8.87;;;2.63;;
3865;SDS011;1948;53.250;10.412;2024-03-17T14:32:46;10.80;;;2.77;;
3865;SDS011;1948;53.250;10.412;2024-03-17T14:35:13;15.43;;;2.87;;
3865;SDS011;1948;53.250;10.412;2024-03-17T14:37:45;5.90;;;2.87;;
3865;SDS011;1948;53.250;10.412;2024-03-17T14:40:18;8.23;;;2.80;;
3865;SDS011;1948;53.250;10.412;2024-03-17T14:42:50;15.07;;;2.83;;
3865;SDS011;1948;53.250;10.412;2024-03-17T14:45:19;9.50;;;2.50;;
3865;SDS011;1948;53.250;10.412;2024-03-17T14:47:49;4.93;;;2.47;;
3865;SDS011;1948;53.250;10.412;2024-03-17T14:50:15;6.07;;;2.30;;
3865;SDS011;1948;53.250;10.412;2024-03-17T14:52:44;13.87;;;2.73;;
3865;SDS011;1948;53.250;10.412;2024-03-17T14:55:10;7.27;;;2.70;;
3865;SDS011;1948;53.250;10.412;2024-03-17T14:57:39;11.90;;;2.73;;
3865;SDS011;1948;53.250;10.412;2024-03-17T15:00:09;6.07;;;2.70;;
3865;SDS011;1948;53.250;10.412;2024-03-17T15:02:42;8.60;;;2.60;;
3865;SDS011;1948;53.250;10.412;2024-03-17T15:05:14;6.03;;;1.87;;
3865;SDS011;1948;53.250;10.412;2024-03-17T15:07:41;6.03;;;2.57;;
3865;SDS011;1948;53.250;10.412;2024-03-17T15:10:10;11.87;;;3.20;;
3865;SDS011;1948;53.250;10.412;2024-03-17T15:12:48;11.77;;;2.93;;
3865;SDS011;1948;53.250;10.412;2024-03-17T15:15:15;10.00;;;2.50;;
3865;SDS011;1948;53.250;10.412;2024-03-17T15:17:44;13.93;;;2.43;;
3865;SDS011;1948;53.250;10.412;2024-03-17T15:20:10;10.27;;;2.70;;
3865;SDS011;1948;53.250;10.412;2024-03-17T15:22:49;7.27;;;2.40;;
3865;SDS011;1948;53.250;10.412;2024-03-17T15:25:19;16.00;;;3.00;;
3865;SDS011;1948;53.250;10.412;2024-03-17T15:27:45;7.17;;;2.27;;
3865;SDS011;1948;53.250;10.412;2024-03-17T15:30:14;11.47;;;3.27;;
3865;SDS011;1948;53.250;10.412;2024-03-17T15:32:47;3.97;;;2.37;;
3865;SDS011;1948;53.250;10.412;2024-03-17T15:35:14;7.43;;;2.13;;
3865;SDS011;1948;53.250;10.412;2024-03-17T15:37:41;14.97;;;2.50;;
3865;SDS011;1948;53.250;10.412;2024-03-17T15:40:08;6.73;;;2.33;;
3865;SDS011;1948;53.250;10.412;2024-03-17T15:42:45;12.10;;;2.80;;
3865;SDS011;1948;53.250;10.412;2024-03-17T15:45:15;14.43;;;2.80;;
3865;SDS011;1948;53.250;10.412;2024-03-17T15:47:46;9.30;;;2.27;;
3865;SDS011;1948;53.250;10.412;2024-03-17T15:50:14;7.97;;;2.60;;